Minneapolis, Minnesota
Traffic Map
Current Weather Conditions
Minneapolis, Minnesota
Overcast
Overcast
61°
Feels Like: 61°
Wind Chill: 61° Ceiling: 1200
Heat Index: 61° Visibility: 10mi
Dew Point: 58° Wind: 12mph
Humidity: 90% Direction: 230° (SW)
Pressure: 29.68in Gusts: 0mph
Raw Report DataKMSP 251553Z 23010KT 10SM OVC012 16/14 A2968 RMK AO2 SLP052 T01610144
Traffic Incident Summary
Active as of:
Severity:
Category:
InformationThere was an issue retrieving the traffic information for this location. Please try a different location or try again shortly.
Advertisements
Track Severe Weather on mobile